Time;durP1;ratioP1;P1;durP2;ratioP2;P2;SDS_P1;SDS_P2;PMS_P1;PMS_P2;Temp;Humidity;BMP_temperature;BMP_pressure;BME280_temperature;BME280_humidity;BME280_pressure;Samples;Min_cycle;Max_cycle;Signal;HPM_P1;HPM_P2
2023/12/23 09:36:51;;;;;;;0.45;0.17;;;;;;;2.00;63.37;100159.47;5066996;27;20401;-80
2023/12/23 09:39:17;;;;;;;2.55;0.10;;;;;;;2.10;62.50;100150.72;5018047;28;20065;-77
2023/12/23 09:41:44;;;;;;;2.22;0.30;;;;;;;1.63;64.35;100160.03;4994238;28;20045;-78
2023/12/23 09:44:09;;;;;;;0.90;0.20;;;;;;;1.97;63.16;100164.66;5006167;28;20044;-77
2023/12/23 09:46:38;;;;;;;1.13;0.20;;;;;;;1.90;63.62;100169.91;5006605;28;20033;-76
2023/12/23 09:49:04;;;;;;;9.20;0.82;;;;;;;1.71;63.25;100169.34;5034757;28;20069;-79
2023/12/23 09:51:32;;;;;;;2.72;0.28;;;;;;;1.60;63.89;100170.38;5032925;28;20303;-78
2023/12/23 09:54:02;;;;;;;2.92;0.32;;;;;;;1.81;63.47;100162.31;4986960;28;20549;-79
2023/12/23 09:56:28;;;;;;;2.55;0.10;;;;;;;2.00;63.62;100165.50;5000096;28;20064;-78
2023/12/23 09:58:53;;;;;;;2.25;0.10;;;;;;;2.03;63.49;100162.00;5015724;28;20167;-79
2023/12/23 10:01:19;;;;;;;6.63;0.50;;;;;;;2.09;63.27;100154.19;5002166;28;20492;-78
2023/12/23 10:03:46;;;;;;;2.10;0.20;;;;;;;2.01;63.28;100163.75;5008451;28;20041;-78
2023/12/23 10:06:13;;;;;;;0.57;0.17;;;;;;;1.94;63.28;100163.84;5001329;28;20025;-77
2023/12/23 10:08:39;;;;;;;0.75;0.10;;;;;;;2.15;62.73;100159.22;5023620;28;20132;-78
2023/12/23 10:11:05;;;;;;;1.35;0.10;;;;;;;2.06;63.52;100155.06;5022690;28;20102;-77
2023/12/23 10:13:31;;;;;;;1.40;0.50;;;;;;;2.34;62.61;100163.19;5020775;28;20422;-78
2023/12/23 10:15:56;;;;;;;1.48;0.40;;;;;;;2.08;63.05;100155.03;5024949;28;20101;-77
2023/12/23 10:18:21;;;;;;;3.90;0.32;;;;;;;2.21;63.04;100159.13;5007845;28;20357;-78
2023/12/23 10:20:47;;;;;;;2.25;0.13;;;;;;;2.26;62.50;100152.16;5037188;28;20080;-79
2023/12/23 10:23:13;;;;;;;2.75;0.40;;;;;;;1.79;64.72;100164.06;4991063;28;20727;-78
2023/12/23 10:25:41;;;;;;;1.20;0.20;;;;;;;2.13;63.48;100160.97;5009941;28;20029;-79
2023/12/23 10:28:08;;;;;;;1.60;0.25;;;;;;;1.75;64.25;100165.00;5019506;28;20037;-78
2023/12/23 10:30:38;;;;;;;0.50;0.10;;;;;;;2.03;64.07;100170.59;5010355;28;20033;-79
2023/12/23 10:33:08;;;;;;;0.75;0.25;;;;;;;1.82;64.72;100164.03;5020475;28;20041;-76
2023/12/23 10:35:44;;;;;;;2.50;0.20;;;;;;;2.26;63.27;100162.47;5010401;28;20192;-76
2023/12/23 10:38:12;;;;;;;0.50;0.30;;;;;;;1.99;63.84;100158.63;5031536;28;20029;-76
2023/12/23 10:40:38;;;;;;;0.45;0.10;;;;;;;2.17;63.61;100156.63;5026920;28;20040;-77
2023/12/23 10:43:05;;;;;;;0.85;0.10;;;;;;;2.17;63.10;100152.31;5023633;28;20045;-78
2023/12/23 10:45:31;;;;;;;2.53;0.40;;;;;;;2.19;63.13;100158.28;4998779;28;20256;-77
2023/12/23 10:47:58;;;;;;;4.75;1.10;;;;;;;1.94;63.72;100166.41;4993914;28;20056;-76
2023/12/23 10:50:24;;;;;;;0.28;0.10;;;;;;;1.89;63.53;100169.97;5018319;28;20058;-77
2023/12/23 10:52:52;;;;;;;0.93;0.10;;;;;;;1.89;63.80;100173.38;4996922;28;20573;-78
2023/12/23 10:55:20;;;;;;;1.60;0.20;;;;;;;2.20;62.84;100162.59;5008443;28;20081;-79
2023/12/23 10:57:48;;;;;;;9.40;0.95;;;;;;;2.32;63.03;100170.09;4985851;28;20068;-78
2023/12/23 11:00:14;;;;;;;0.50;0.15;;;;;;;2.73;62.02;100173.69;4973625;28;20049;-80
2023/12/23 11:02:45;;;;;;;0.70;0.20;;;;;;;2.95;60.98;100171.53;5018395;28;20045;-81
2023/12/23 11:05:12;;;;;;;2.00;0.10;;;;;;;2.84;61.81;100167.47;4986754;28;20037;-79
2023/12/23 11:07:46;;;;;;;0.65;0.20;;;;;;;2.35;62.19;100167.50;5021929;28;20409;-80
2023/12/23 11:10:14;;;;;;;4.13;0.10;;;;;;;2.28;62.29;100176.19;4988607;28;20140;-78
2023/12/23 11:12:43;;;;;;;1.13;0.20;;;;;;;2.25;63.00;100170.25;5012053;28;20084;-77
2023/12/23 11:15:08;;;;;;;1.17;0.17;;;;;;;2.38;62.49;100173.44;4992527;28;20377;-78
2023/12/23 11:17:40;;;;;;;1.45;0.00;;;;;;;2.47;62.25;100181.06;5004528;28;20033;-77
2023/12/23 11:20:07;;;;;;;4.75;0.13;;;;;;;2.16;62.84;100191.88;5019505;28;20049;-78
2023/12/23 11:22:38;;;;;;;1.10;0.10;;;;;;;2.44;62.21;100173.34;5014442;28;20029;-78
2023/12/23 11:25:24;;;;;;;0.65;0.10;;;;;;;1.95;63.17;100182.72;4994522;28;20041;-77
2023/12/23 11:27:50;;;;;;;1.55;0.10;;;;;;;2.59;61.90;100180.81;5011901;28;20041;-77
2023/12/23 11:30:15;;;;;;;0.45;0.10;;;;;;;2.89;61.43;100178.53;4994366;28;20050;-74
2023/12/23 11:32:43;;;;;;;1.60;0.03;;;;;;;2.30;62.31;100179.59;4994664;28;20594;-75
2023/12/23 11:35:12;;;;;;;2.85;0.10;;;;;;;2.47;61.85;100175.88;4994471;28;20056;-75
2023/12/23 11:37:50;;;;;;;0.30;0.03;;;;;;;1.98;63.12;100192.16;5016442;28;20037;-75
2023/12/23 11:40:16;;;;;;;1.08;0.10;;;;;;;2.63;62.09;100187.63;4996923;28;20045;-75
2023/12/23 11:42:43;;;;;;;1.52;0.10;;;;;;;2.40;62.01;100192.31;5003565;28;20071;-75
2023/12/23 11:45:11;;;;;;;3.63;0.10;;;;;;;2.31;62.53;100198.50;4996535;28;20045;-74
2023/12/23 11:47:37;;;;;;;1.65;0.10;;;;;;;2.35;62.33;100195.84;5015040;28;20040;-74
2023/12/23 11:50:02;;;;;;;1.45;0.10;;;;;;;2.35;62.60;100200.16;4978799;28;20049;-75
2023/12/23 11:52:28;;;;;;;1.35;0.20;;;;;;;2.56;61.81;100196.38;4979949;28;20092;-76
2023/12/23 11:54:54;;;;;;;0.45;0.10;;;;;;;2.74;61.50;100196.03;5000294;28;20112;-78
2023/12/23 11:57:20;;;;;;;0.45;0.22;;;;;;;2.75;61.40;100195.13;4997812;28;20395;-78
2023/12/23 11:59:49;;;;;;;1.25;0.10;;;;;;;2.46;62.07;100195.66;4994831;28;20056;-76
2023/12/23 12:02:15;;;;;;;4.28;0.10;;;;;;;2.31;62.33;100183.88;5016544;28;20118;-76
2023/12/23 12:04:40;;;;;;;3.95;0.10;;;;;;;2.33;62.50;100192.44;4989769;28;21504;-76
2023/12/23 12:07:06;;;;;;;1.88;0.00;;;;;;;2.29;62.46;100201.13;5011161;28;20575;-76
2023/12/23 12:09:32;;;;;;;1.35;0.20;;;;;;;2.57;61.99;100198.91;5000016;28;20046;-76
2023/12/23 12:12:00;;;;;;;0.82;0.10;;;;;;;2.90;61.68;100206.06;5015587;28;20509;-76
2023/12/23 12:14:28;;;;;;;4.43;1.33;;;;;;;2.09;63.14;100205.75;4999898;28;20549;-75
2023/12/23 12:16:54;;;;;;;0.20;0.00;;;;;;;2.61;61.81;100210.03;5014932;28;20115;-75
2023/12/23 12:19:20;;;;;;;1.20;0.20;;;;;;;2.81;61.61;100211.41;5002970;28;20108;-75
2023/12/23 12:21:45;;;;;;;0.45;0.00;;;;;;;2.33;63.00;100215.66;4994540;28;20110;-75
2023/12/23 12:24:11;;;;;;;0.32;0.10;;;;;;;2.86;61.59;100213.00;4996110;28;20529;-75
2023/12/23 12:26:37;;;;;;;4.60;0.50;;;;;;;2.81;61.94;100212.25;5013784;28;20228;-75
2023/12/23 12:29:05;;;;;;;2.33;0.40;;;;;;;3.02;61.50;100210.97;5011187;28;20049;-75
2023/12/23 12:31:31;;;;;;;0.20;0.00;;;;;;;2.96;61.29;100209.38;5016331;28;20453;-77
2023/12/23 12:33:58;;;;;;;1.95;0.10;;;;;;;2.84;61.37;100219.09;5009023;28;20448;-75
2023/12/23 12:36:24;;;;;;;0.82;0.10;;;;;;;2.88;61.34;100213.00;4985526;28;20025;-75
2023/12/23 12:38:50;;;;;;;0.25;0.05;;;;;;;2.56;61.57;100211.84;4994368;28;20088;-76
2023/12/23 12:41:16;;;;;;;0.68;0.15;;;;;;;2.74;61.87;100210.66;5002238;28;20481;-76
2023/12/23 12:43:43;;;;;;;0.30;0.00;;;;;;;2.53;62.29;100217.03;5017684;28;20067;-76
2023/12/23 12:46:09;;;;;;;5.68;0.25;;;;;;;2.33;62.42;100215.66;5029133;28;20037;-77
2023/12/23 12:48:35;;;;;;;1.05;0.10;;;;;;;2.75;61.37;100208.03;4990871;28;20041;-77
2023/12/23 12:51:01;;;;;;;0.47;0.32;;;;;;;2.71;61.51;100205.53;4998132;28;20033;-77
2023/12/23 12:53:30;;;;;;;0.32;0.20;;;;;;;2.96;61.50;100200.81;5023979;28;20042;-77
2023/12/23 12:56:10;;;;;;;1.52;0.10;;;;;;;2.99;60.92;100211.06;4980962;28;20857;-76
2023/12/23 12:58:35;;;;;;;1.33;0.13;;;;;;;3.19;60.98;100213.25;4992713;28;20129;-79
2023/12/23 13:01:02;;;;;;;0.28;0.00;;;;;;;2.99;61.07;100216.22;5007015;28;20128;-76
2023/12/23 13:03:29;;;;;;;0.57;0.10;;;;;;;2.53;62.51;100204.13;5013165;28;20053;-77
2023/12/23 13:05:55;;;;;;;0.65;0.10;;;;;;;2.86;61.42;100210.44;5008423;28;20273;-76
2023/12/23 13:08:21;;;;;;;0.68;0.10;;;;;;;2.89;61.11;100207.81;4981886;28;20045;-76
2023/12/23 13:10:46;;;;;;;0.55;0.10;;;;;;;2.70;61.75;100203.84;5007444;28;20038;-77
2023/12/23 13:13:12;;;;;;;0.70;0.10;;;;;;;2.75;61.47;100208.03;4997593;28;20057;-76
2023/12/23 13:15:38;;;;;;;0.82;0.10;;;;;;;2.65;62.07;100216.84;5022630;28;20041;-77
2023/12/23 13:18:03;;;;;;;4.00;0.10;;;;;;;2.54;62.35;100218.75;5006686;28;20524;-77
2023/12/23 13:20:29;;;;;;;1.95;0.20;;;;;;;2.60;62.27;100226.41;4976697;28;20025;-76
2023/12/23 13:22:54;;;;;;;0.30;0.10;;;;;;;2.63;62.25;100234.06;4982364;28;20056;-77
2023/12/23 13:25:20;;;;;;;1.63;0.10;;;;;;;3.03;61.11;100237.69;4997009;28;20046;-77
2023/12/23 13:27:45;;;;;;;1.38;0.20;;;;;;;3.24;60.23;100238.97;4982002;28;20259;-76
2023/12/23 13:30:11;;;;;;;0.20;0.00;;;;;;;3.19;60.78;100245.09;5007273;28;20391;-75
2023/12/23 13:32:36;;;;;;;0.40;0.05;;;;;;;3.06;60.83;100248.78;5023532;28;20034;-77
2023/12/23 13:35:02;;;;;;;0.85;0.05;;;;;;;3.28;60.55;100248.38;4992211;28;20045;-77
2023/12/23 13:37:28;;;;;;;1.30;0.10;;;;;;;3.09;61.01;100248.75;4995315;28;20029;-76
2023/12/23 13:39:54;;;;;;;0.05;0.00;;;;;;;2.73;61.84;100256.28;4988755;28;20049;-77
2023/12/23 13:42:19;;;;;;;1.70;0.10;;;;;;;2.86;61.03;100235.41;4977051;28;20033;-77
2023/12/23 13:44:46;;;;;;;0.82;0.22;;;;;;;3.21;60.32;100233.88;4973642;23;20427;-64
2023/12/23 13:47:12;;;;;;;0.17;0.00;;;;;;;3.25;60.70;100243.25;4955234;28;20057;-65
2023/12/23 13:49:38;;;;;;;2.13;0.03;;;;;;;2.87;61.52;100250.03;4953627;28;20104;-64
2023/12/23 13:52:03;;;;;;;0.10;0.00;;;;;;;3.18;60.45;100258.88;4949001;28;20346;-63
2023/12/23 13:54:33;;;;;;;1.30;0.10;;;;;;;2.62;62.25;100253.00;4949515;28;20042;-63
2023/12/23 13:56:59;;;;;;;3.20;0.30;;;;;;;2.55;62.10;100259.16;4956592;28;20042;-63
2023/12/23 13:59:24;;;;;;;1.90;0.00;;;;;;;2.72;61.92;100264.03;4953734;28;20528;-64
2023/12/23 14:01:50;;;;;;;0.68;0.00;;;;;;;3.17;60.64;100262.34;4972552;22;21169;-64
2023/12/23 14:04:15;;;;;;;0.10;0.00;;;;;;;3.20;60.34;100261.41;4968356;28;20050;-64
2023/12/23 14:06:43;;;;;;;0.20;0.00;;;;;;;2.90;61.22;100257.69;4975457;28;20040;-65
2023/12/23 14:09:09;;;;;;;1.73;0.03;;;;;;;2.84;61.30;100257.78;4986231;28;20045;-63
2023/12/23 14:11:35;;;;;;;0.38;0.08;;;;;;;3.00;61.16;100243.72;4970390;28;20034;-64
2023/12/23 14:14:00;;;;;;;0.10;0.00;;;;;;;2.69;61.91;100257.19;4974495;28;20520;-63
2023/12/23 14:16:26;;;;;;;1.23;0.00;;;;;;;2.98;61.44;100258.41;4974823;28;20022;-64
2023/12/23 14:18:52;;;;;;;0.63;0.10;;;;;;;2.81;61.29;100263.88;4975890;28;20045;-64
2023/12/23 14:21:17;;;;;;;2.63;0.50;;;;;;;3.31;60.29;100267.25;4972240;28;20026;-64
2023/12/23 14:23:43;;;;;;;1.92;0.68;;;;;;;3.29;60.25;100266.47;4978715;28;20215;-65
2023/12/23 14:26:08;;;;;;;0.20;0.10;;;;;;;3.14;60.65;100272.75;4978845;28;20037;-64
2023/12/23 14:28:34;;;;;;;0.55;0.03;;;;;;;2.77;61.28;100268.22;4976183;28;20133;-64
2023/12/23 14:31:03;;;;;;;0.00;0.00;;;;;;;2.97;61.26;100265.28;4983272;28;20034;-63
2023/12/23 14:33:31;;;;;;;1.05;0.40;;;;;;;3.18;60.64;100274.38;4976580;28;20042;-65
2023/12/23 14:35:57;;;;;;;0.30;0.10;;;;;;;3.11;60.73;100280.56;4983593;28;20030;-64
2023/12/23 14:38:23;;;;;;;0.63;0.20;;;;;;;2.91;61.16;100280.91;4972373;28;20060;-65
2023/12/23 14:40:48;;;;;;;0.95;0.25;;;;;;;3.10;60.61;100285.72;4981411;28;20116;-65
2023/12/23 14:43:14;;;;;;;3.40;0.20;;;;;;;3.14;60.78;100287.38;4973578;28;20330;-63
2023/12/23 14:45:40;;;;;;;2.28;0.10;;;;;;;2.55;62.17;100288.41;4980844;28;20520;-65
2023/12/23 14:48:06;;;;;;;1.40;0.20;;;;;;;2.42;62.44;100280.84;4956536;28;20057;-65
2023/12/23 14:50:33;;;;;;;0.35;0.10;;;;;;;2.59;62.77;100288.34;4978281;28;20037;-65
2023/12/23 14:52:59;;;;;;;2.03;0.10;;;;;;;2.89;61.58;100292.13;4976526;28;20037;-66
2023/12/23 14:55:24;;;;;;;2.17;0.17;;;;;;;2.79;61.67;100301.75;4972984;28;20045;-63
2023/12/23 14:57:50;;;;;;;0.40;0.10;;;;;;;3.02;60.94;100296.19;4973939;28;20087;-64
2023/12/23 15:00:16;;;;;;;2.28;0.30;;;;;;;2.92;61.64;100298.09;4970578;28;20050;-63
2023/12/23 15:02:41;;;;;;;0.57;0.20;;;;;;;2.58;62.76;100297.81;4974702;28;20030;-63
2023/12/23 15:05:07;;;;;;;1.38;0.40;;;;;;;2.65;62.69;100299.41;4985303;28;20078;-65
2023/12/23 15:07:32;;;;;;;1.30;0.13;;;;;;;2.61;62.03;100292.59;4974764;28;20038;-64
2023/12/23 15:09:58;;;;;;;0.63;0.35;;;;;;;2.82;62.08;100295.69;4980845;28;20073;-64
2023/12/23 15:12:23;;;;;;;0.77;0.10;;;;;;;2.97;61.09;100296.25;4983230;28;20037;-65
2023/12/23 15:14:50;;;;;;;0.47;0.10;;;;;;;2.42;63.27;100312.69;4980924;28;20072;-65
2023/12/23 15:17:16;;;;;;;0.30;0.00;;;;;;;2.49;62.39;100310.84;4980888;28;20029;-64
2023/12/23 15:19:42;;;;;;;0.15;0.00;;;;;;;2.48;62.23;100311.72;4986005;28;20103;-64
2023/12/23 15:22:07;;;;;;;1.40;0.10;;;;;;;2.74;62.23;100322.47;4998911;28;20031;-64
2023/12/23 15:24:33;;;;;;;0.40;0.00;;;;;;;3.00;61.47;100321.16;4961252;28;20042;-64
2023/12/23 15:26:59;;;;;;;0.68;0.10;;;;;;;2.88;61.32;100321.41;4979449;28;20065;-65
2023/12/23 15:29:25;;;;;;;0.20;0.00;;;;;;;3.06;60.92;100325.41;4950886;28;20126;-64
2023/12/23 15:31:50;;;;;;;1.02;0.00;;;;;;;3.19;60.64;100327.72;4971999;28;20041;-64
2023/12/23 15:34:16;;;;;;;1.15;0.10;;;;;;;3.14;60.38;100328.69;4973697;28;20061;-65
2023/12/23 15:36:42;;;;;;;0.10;0.00;;;;;;;3.07;61.22;100309.88;4964341;28;21122;-64
2023/12/23 15:39:07;;;;;;;0.57;0.10;;;;;;;2.97;61.17;100316.06;4988054;28;20565;-65
2023/12/23 15:41:34;;;;;;;0.13;0.00;;;;;;;3.06;60.80;100318.50;4986647;28;20030;-64
2023/12/23 15:44:00;;;;;;;0.95;0.30;;;;;;;3.05;61.03;100314.22;4985104;28;20030;-64
2023/12/23 15:46:26;;;;;;;0.98;0.47;;;;;;;2.91;60.94;100311.88;4958566;28;20337;-64
2023/12/23 15:48:51;;;;;;;2.03;0.35;;;;;;;3.06;60.83;100313.31;4964507;28;20121;-65
2023/12/23 15:51:18;;;;;;;0.40;0.10;;;;;;;2.46;62.23;100326.38;4940204;28;20041;-65
2023/12/23 15:53:44;;;;;;;0.57;0.10;;;;;;;2.86;61.26;100326.56;4961171;28;20548;-66
2023/12/23 15:56:10;;;;;;;1.58;0.20;;;;;;;3.13;60.73;100322.66;4978114;28;20038;-66
2023/12/23 15:58:36;;;;;;;0.77;0.20;;;;;;;2.90;61.02;100319.66;4988977;28;20758;-65
2023/12/23 16:01:03;;;;;;;0.30;0.10;;;;;;;3.08;60.90;100328.81;4971975;28;20160;-66
2023/12/23 16:03:29;;;;;;;0.82;0.22;;;;;;;2.96;60.86;100325.56;4972419;28;20431;-65
2023/12/23 16:05:55;;;;;;;0.90;0.30;;;;;;;3.08;60.84;100329.66;4973212;28;20038;-65
2023/12/23 16:08:39;;;;;;;2.95;0.20;;;;;;;3.03;60.69;100321.13;4988921;28;20098;-65
2023/12/23 16:11:04;;;;;;;0.60;0.20;;;;;;;3.09;60.81;100325.31;4960640;28;20234;-65
2023/12/23 16:13:30;;;;;;;0.98;0.30;;;;;;;3.11;60.72;100316.69;4958015;28;20042;-66
2023/12/23 16:15:55;;;;;;;2.67;0.30;;;;;;;3.21;60.47;100311.38;4955992;28;20062;-65
2023/12/23 16:18:21;;;;;;;2.50;0.70;;;;;;;3.23;60.72;100307.88;4946541;28;21670;-65
2023/12/23 16:20:46;;;;;;;2.83;0.68;;;;;;;3.19;60.66;100301.06;4943744;28;20046;-65
2023/12/23 16:23:12;;;;;;;3.25;0.30;;;;;;;3.18;60.49;100305.38;4948462;28;20046;-65
2023/12/23 16:25:38;;;;;;;1.70;0.40;;;;;;;3.03;61.28;100304.81;4940586;28;20041;-64
2023/12/23 16:28:03;;;;;;;1.80;0.30;;;;;;;2.91;61.29;100305.84;4923333;28;20049;-65
2023/12/23 16:30:29;;;;;;;1.20;0.45;;;;;;;3.15;60.84;100295.09;4960543;28;20046;-66
2023/12/23 16:32:54;;;;;;;2.38;0.70;;;;;;;3.07;60.85;100288.34;4956116;28;20443;-66
2023/12/23 16:35:20;;;;;;;1.70;0.93;;;;;;;3.02;61.43;100288.44;4957480;28;20038;-65
2023/12/23 16:37:45;;;;;;;1.10;0.20;;;;;;;3.09;61.30;100291.75;4955540;28;20042;-65
2023/12/23 16:40:11;;;;;;;1.58;0.40;;;;;;;3.13;61.32;100298.56;4957084;28;96857;-65
2023/12/23 16:42:38;;;;;;;1.52;0.30;;;;;;;3.22;60.79;100297.56;4969271;28;21075;-65
2023/12/23 16:45:05;;;;;;;1.52;0.28;;;;;;;3.12;61.12;100297.72;4972474;28;20040;-64
2023/12/23 16:47:30;;;;;;;0.98;0.15;;;;;;;3.01;61.04;100302.25;4965586;28;20373;-65
2023/12/23 16:49:56;;;;;;;0.38;0.10;;;;;;;3.14;61.13;100301.16;4971116;28;20045;-66
2023/12/23 16:52:22;;;;;;;0.40;0.10;;;;;;;3.11;61.14;100298.63;4970152;28;20081;-63
2023/12/23 16:54:48;;;;;;;1.10;0.47;;;;;;;3.14;61.21;100298.56;4973016;28;20041;-66
2023/12/23 16:57:14;;;;;;;4.13;1.40;;;;;;;2.75;62.45;100310.41;4992512;28;20594;-65
2023/12/23 16:59:39;;;;;;;2.90;1.02;;;;;;;3.06;61.66;100300.41;4962002;28;20037;-63
2023/12/23 17:02:05;;;;;;;2.15;0.75;;;;;;;3.11;61.65;100290.88;4984643;28;20044;-64
2023/12/23 17:04:30;;;;;;;2.20;0.88;;;;;;;2.89;62.03;100284.38;4964402;28;20491;-63
2023/12/23 17:06:56;;;;;;;3.53;1.13;;;;;;;3.11;61.66;100282.25;4971024;28;20029;-64
2023/12/23 17:09:22;;;;;;;2.72;1.30;;;;;;;3.07;61.77;100280.59;4984937;28;20124;-64
2023/12/23 17:11:49;;;;;;;3.47;1.38;;;;;;;2.92;62.25;100279.16;4981829;28;20029;-66
2023/12/23 17:14:14;;;;;;;2.78;1.48;;;;;;;3.16;61.72;100278.72;4971395;28;20577;-63
2023/12/23 17:16:40;;;;;;;2.42;1.30;;;;;;;3.22;61.04;100280.31;4970325;28;20034;-63
2023/12/23 17:19:05;;;;;;;5.72;1.88;;;;;;;2.95;61.91;100277.38;4963178;28;20040;-64
2023/12/23 17:21:31;;;;;;;4.38;1.95;;;;;;;3.09;61.72;100278.84;4959684;28;20353;-63
2023/12/23 17:23:56;;;;;;;5.35;2.35;;;;;;;3.00;61.84;100269.53;4981077;28;21020;-65
2023/12/23 17:26:22;;;;;;;10.15;5.03;;;;;;;3.14;61.74;100270.16;4975071;28;20483;-65
2023/12/23 17:28:47;;;;;;;2.65;1.48;;;;;;;3.15;61.66;100269.25;4972823;28;20400;-65
2023/12/23 17:31:13;;;;;;;1.42;0.50;;;;;;;3.24;61.29;100267.38;4980250;28;20065;-66
2023/12/23 17:33:38;;;;;;;2.75;1.55;;;;;;;3.22;61.41;100261.41;4973289;28;20049;-64
2023/12/23 17:36:07;;;;;;;3.97;1.67;;;;;;;3.01;62.26;100266.09;4974261;28;20072;-65
2023/12/23 17:38:33;;;;;;;3.47;1.23;;;;;;;3.22;61.39;100266.56;4991444;28;20125;-64
2023/12/23 17:40:58;;;;;;;2.20;1.23;;;;;;;3.07;61.79;100263.41;4989767;28;21352;-64
2023/12/23 17:43:24;;;;;;;2.05;1.10;;;;;;;3.13;62.03;100268.44;4975825;28;20339;-63
2023/12/23 17:45:50;;;;;;;2.17;1.45;;;;;;;3.14;61.97;100267.56;4976169;28;20106;-66
2023/12/23 17:48:15;;;;;;;4.65;2.22;;;;;;;3.26;61.37;100263.06;4977730;28;20120;-66
2023/12/23 17:50:42;;;;;;;4.45;2.70;;;;;;;3.32;61.32;100266.41;4976134;28;21672;-64
2023/12/23 17:53:07;;;;;;;4.75;3.45;;;;;;;3.26;61.70;100270.78;4976103;28;20056;-65
2023/12/23 17:55:33;;;;;;;5.72;3.88;;;;;;;3.31;61.54;100271.59;4975338;28;20033;-64
2023/12/23 17:57:58;;;;;;;5.28;3.85;;;;;;;3.36;61.61;100277.53;4960023;28;20413;-63
2023/12/23 18:00:25;;;;;;;6.95;3.47;;;;;;;3.26;61.68;100260.47;4962231;28;20057;-64
2023/12/23 18:02:51;;;;;;;6.20;2.97;;;;;;;3.29;61.61;100252.69;4979407;28;20038;-63
2023/12/23 18:05:18;;;;;;;6.28;3.50;;;;;;;3.23;62.21;100257.97;4983370;28;20047;-64
2023/12/23 18:07:44;;;;;;;7.93;3.70;;;;;;;3.09;62.26;100258.19;4979058;28;21078;-64
2023/12/23 18:10:10;;;;;;;5.63;2.67;;;;;;;3.25;61.99;100253.59;4981660;28;20034;-67
2023/12/23 18:12:36;;;;;;;4.28;2.28;;;;;;;3.32;61.88;100250.06;4979948;28;20059;-64
2023/12/23 18:15:02;;;;;;;3.20;2.28;;;;;;;3.32;61.73;100250.06;4978191;28;20696;-64
2023/12/23 18:17:27;;;;;;;3.50;1.75;;;;;;;3.37;61.54;100253.38;4981408;28;20167;-63
2023/12/23 18:19:53;;;;;;;4.13;2.35;;;;;;;3.36;61.61;100256.88;4979584;28;20041;-65
2023/12/23 18:22:21;;;;;;;3.40;1.60;;;;;;;3.37;61.51;100258.56;4980324;28;20091;-64
2023/12/23 18:26:54;;;;;;;2.70;1.20;;;;;;;3.36;61.69;100247.38;4955076;28;20419;-65
2023/12/23 18:29:19;;;;;;;2.50;0.98;;;;;;;3.35;61.35;100244.81;4965997;28;20087;-66
2023/12/23 18:31:45;;;;;;;2.65;0.98;;;;;;;3.40;61.53;100242.97;4967747;28;20049;-65
2023/12/23 18:34:10;;;;;;;3.15;1.88;;;;;;;3.31;61.32;100243.16;4970134;28;20125;-64
2023/12/23 18:36:37;;;;;;;3.00;1.58;;;;;;;3.28;61.53;100243.22;4966395;28;20037;-64
2023/12/23 18:39:03;;;;;;;3.15;1.55;;;;;;;3.19;61.78;100229.59;4969016;28;20366;-64
2023/12/23 18:41:28;;;;;;;3.15;1.15;;;;;;;3.19;61.94;100233.91;4967691;28;20978;-64
2023/12/23 18:43:54;;;;;;;6.00;2.75;;;;;;;3.16;61.77;100232.25;4969772;28;20128;-64
2023/12/23 18:46:19;;;;;;;3.05;1.52;;;;;;;3.16;61.65;100234.81;4980755;28;20051;-64
2023/12/23 18:48:46;;;;;;;3.28;1.60;;;;;;;3.13;62.06;100234.03;4973512;28;21500;-64
2023/12/23 18:51:12;;;;;;;4.28;1.95;;;;;;;3.13;61.77;100226.28;4973423;28;20048;-64
2023/12/23 18:53:37;;;;;;;5.65;1.45;;;;;;;3.16;62.01;100224.50;4968579;28;20160;-65
2023/12/23 18:56:03;;;;;;;3.40;2.00;;;;;;;3.16;61.94;100223.66;4972516;28;21431;-65
2023/12/23 18:58:30;;;;;;;3.10;1.73;;;;;;;3.17;62.10;100222.75;4971459;28;20037;-65
2023/12/23 19:00:57;;;;;;;4.50;2.03;;;;;;;3.19;61.94;100218.41;4970579;28;20076;-65
2023/12/23 19:03:22;;;;;;;3.95;1.67;;;;;;;3.15;62.04;100215.03;4976096;28;20052;-65
2023/12/23 19:05:48;;;;;;;4.68;2.42;;;;;;;3.18;62.02;100221.88;4968724;28;21355;-65
2023/12/23 19:08:15;;;;;;;4.57;2.10;;;;;;;3.19;62.07;100227.00;4971946;28;20566;-64
2023/12/23 19:10:43;;;;;;;4.43;2.13;;;;;;;3.17;62.13;100220.19;4968394;28;20120;-64
2023/12/23 19:13:09;;;;;;;6.28;2.55;;;;;;;3.20;61.93;100220.09;4966314;28;20132;-65
2023/12/23 19:15:34;;;;;;;3.70;2.22;;;;;;;3.25;61.96;100227.75;4966266;28;21017;-65
2023/12/23 19:18:00;;;;;;;11.90;6.00;;;;;;;3.27;62.18;100210.50;4962255;28;20151;-65
2023/12/23 19:20:25;;;;;;;4.00;2.35;;;;;;;3.28;61.98;100227.72;4971577;28;20045;-64
2023/12/23 19:22:51;;;;;;;10.40;5.15;;;;;;;3.32;61.82;100219.06;4964474;28;21830;-63
2023/12/23 19:25:19;;;;;;;5.10;2.70;;;;;;;3.27;61.98;100216.53;4972693;28;20227;-63
2023/12/23 19:27:45;;;;;;;5.70;2.63;;;;;;;3.26;61.87;100213.97;4969149;28;20141;-64
2023/12/23 19:30:10;;;;;;;4.72;2.08;;;;;;;3.22;62.06;100205.44;4980147;28;20570;-63
2023/12/23 19:32:40;;;;;;;4.68;1.88;;;;;;;3.26;61.85;100201.06;4975220;28;20164;-63
2023/12/23 19:35:07;;;;;;;6.97;3.10;;;;;;;3.28;61.89;100207.91;4977356;28;20179;-66
2023/12/23 19:37:37;;;;;;;3.33;2.38;;;;;;;3.29;61.95;100195.84;4966978;28;20099;-66
2023/12/23 19:40:03;;;;;;;3.63;2.33;;;;;;;3.21;62.25;100197.72;4962085;28;20136;-65
2023/12/23 19:42:28;;;;;;;4.10;3.25;;;;;;;3.27;61.99;100195.88;4964214;28;20041;-63
2023/12/23 19:44:54;;;;;;;7.85;3.88;;;;;;;3.29;62.01;100199.31;4967190;28;20117;-66
2023/12/23 19:47:19;;;;;;;6.20;3.10;;;;;;;3.31;62.26;100207.00;4963724;28;20811;-64
2023/12/23 19:49:45;;;;;;;7.93;4.20;;;;;;;3.33;62.16;100190.59;4958322;28;20034;-64
2023/12/23 19:52:10;;;;;;;6.38;3.75;;;;;;;3.27;61.88;100193.28;4963638;28;21016;-63
2023/12/23 19:54:36;;;;;;;3.72;2.20;;;;;;;3.31;62.68;100186.34;4957839;28;20069;-63
2023/12/23 19:57:02;;;;;;;3.85;2.20;;;;;;;3.33;62.82;100192.34;4960304;28;20057;-64
2023/12/23 19:59:28;;;;;;;3.22;1.58;;;;;;;3.41;62.74;100177.53;4963192;28;20549;-63
2023/12/23 20:01:53;;;;;;;4.57;2.88;;;;;;;3.32;63.64;100178.56;4958227;28;20198;-63
2023/12/23 20:04:19;;;;;;;6.38;2.33;;;;;;;3.55;62.85;100180.66;4962523;28;20034;-64
2023/12/23 20:06:44;;;;;;;3.13;2.08;;;;;;;3.51;63.69;100184.19;4954125;28;20128;-63
2023/12/23 20:09:11;;;;;;;4.43;2.20;;;;;;;3.55;64.79;100174.66;4962543;28;20095;-64
2023/12/23 20:11:38;;;;;;;3.63;1.63;;;;;;;3.63;66.03;100177.03;4941716;28;87539;-63
2023/12/23 20:14:04;;;;;;;1.65;1.10;;;;;;;4.00;66.47;100175.31;4957635;28;20120;-64
2023/12/23 20:16:29;;;;;;;8.30;1.23;;;;;;;4.05;66.81;100167.47;4958300;28;20716;-63
2023/12/23 20:18:55;;;;;;;6.65;1.83;;;;;;;4.04;67.67;100177.84;4951276;28;21051;-66
2023/12/23 20:21:21;;;;;;;3.20;0.60;;;;;;;3.87;70.17;100175.66;4925999;28;21706;-67
2023/12/23 20:23:46;;;;;;;6.32;0.63;;;;;;;4.30;68.04;100167.72;4957710;28;20750;-65
2023/12/23 20:26:12;;;;;;;7.47;1.15;;;;;;;4.13;69.29;100183.63;4958134;28;20042;-64
2023/12/23 20:28:39;;;;;;;9.35;1.27;;;;;;;4.28;68.89;100166.91;4957943;28;20439;-63
2023/12/23 20:31:04;;;;;;;3.72;0.50;;;;;;;4.01;69.74;100153.75;4956302;28;20030;-67
2023/12/23 20:33:31;;;;;;;6.25;0.45;;;;;;;4.49;68.52;100159.47;4955547;28;20141;-65
2023/12/23 20:35:59;;;;;;;5.65;0.55;;;;;;;4.52;68.47;100165.44;4952771;28;20045;-65
2023/12/23 20:38:25;;;;;;;10.48;0.28;;;;;;;4.35;68.90;100168.44;4958664;28;20041;-64
2023/12/23 20:40:50;;;;;;;2.92;0.30;;;;;;;4.37;69.24;100168.41;4954659;28;20860;-63
2023/12/23 20:43:16;;;;;;;5.60;0.20;;;;;;;4.55;68.66;100161.91;4954598;28;20090;-64
2023/12/23 20:45:41;;;;;;;2.83;0.30;;;;;;;4.40;69.52;100156.22;4953462;28;20042;-64
2023/12/23 20:48:07;;;;;;;2.88;0.68;;;;;;;4.53;68.59;100158.50;4954253;28;20193;-64
2023/12/23 20:50:33;;;;;;;5.85;0.40;;;;;;;4.41;69.25;100163.13;4951905;28;20177;-64
2023/12/23 20:52:59;;;;;;;1.95;0.20;;;;;;;4.16;70.06;100156.84;4974614;28;20049;-66
2023/12/23 20:55:25;;;;;;;2.05;0.10;;;;;;;4.78;68.36;100161.28;4984012;28;20523;-64
2023/12/23 20:57:52;;;;;;;5.97;0.25;;;;;;;4.83;67.72;100165.47;4960792;28;20061;-64
2023/12/23 21:00:20;;;;;;;1.17;0.10;;;;;;;4.65;68.83;100155.56;4978581;28;20029;-64
2023/12/23 21:02:46;;;;;;;1.23;0.77;;;;;;;4.93;68.15;100160.06;4975785;28;20033;-64
2023/12/23 21:05:12;;;;;;;5.15;0.10;;;;;;;4.45;69.40;100147.50;4978856;28;20037;-64
2023/12/23 21:07:38;;;;;;;0.90;0.17;;;;;;;4.43;70.31;100151.00;4974661;28;20246;-64